createdAt,value
2023-01-30T00:01:20.253Z,16.87
2023-01-30T00:03:48.194Z,20.63
2023-01-30T00:06:16.223Z,19.90
2023-01-30T00:08:44.099Z,18.70
2023-01-30T00:11:12.983Z,19.80
2023-01-30T00:13:40.949Z,19.07
2023-01-30T00:16:10.776Z,17.27
2023-01-30T00:18:39.766Z,16.23
2023-01-30T00:21:09.160Z,17.67
2023-01-30T00:23:37.744Z,16.70
2023-01-30T00:26:06.274Z,17.30
2023-01-30T00:28:34.528Z,17.77
2023-01-30T00:31:02.449Z,17.60
2023-01-30T00:33:30.412Z,17.63
2023-01-30T00:35:58.424Z,16.93
2023-01-30T00:38:26.339Z,16.40
2023-01-30T00:40:54.234Z,18.40
2023-01-30T00:43:40.553Z,16.20
2023-01-30T00:46:32.995Z,18.27
2023-01-30T00:49:00.818Z,19.07
2023-01-30T00:51:28.736Z,17.93
2023-01-30T00:53:56.566Z,19.10
2023-01-30T00:56:24.379Z,17.90
2023-01-30T00:58:52.241Z,17.57
2023-01-30T01:01:20.127Z,18.63
2023-01-30T01:03:48.105Z,17.53
2023-01-30T01:06:15.946Z,17.43
2023-01-30T01:08:43.804Z,17.90
2023-01-30T01:11:11.666Z,19.03
2023-01-30T01:13:39.507Z,19.40
2023-01-30T01:16:07.532Z,17.23
2023-01-30T01:18:35.410Z,18.50
2023-01-30T01:21:03.172Z,18.70
2023-01-30T01:23:30.959Z,19.57
2023-01-30T01:26:03.093Z,18.90
2023-01-30T01:28:31.372Z,18.97
2023-01-30T01:30:59.192Z,20.43
2023-01-30T01:33:30.233Z,22.57
2023-01-30T01:35:58.307Z,21.80
2023-01-30T01:38:26.182Z,18.77
2023-01-30T01:41:11.187Z,20.03
2023-01-30T01:44:13.759Z,17.97
2023-01-30T01:46:48.959Z,18.70
2023-01-30T01:49:36.383Z,20.27
2023-01-30T01:52:14.853Z,21.07
2023-01-30T01:54:51.679Z,21.40
2023-01-30T01:57:27.662Z,18.53
2023-01-30T02:00:03.625Z,17.13
2023-01-30T02:02:31.428Z,17.37
2023-01-30T02:05:07.547Z,20.33
2023-01-30T02:07:41.073Z,18.20
2023-01-30T02:10:09.946Z,17.77
2023-01-30T02:12:38.301Z,16.90
2023-01-30T02:15:06.714Z,18.93
2023-01-30T02:17:34.501Z,17.80
2023-01-30T02:20:04.941Z,20.53
2023-01-30T02:22:56.564Z,19.07
2023-01-30T02:25:42.604Z,19.70
2023-01-30T02:28:22.356Z,19.87
2023-01-30T02:31:27.787Z,19.33
2023-01-30T02:34:10.690Z,17.43
2023-01-30T02:37:02.608Z,17.83
2023-01-30T02:39:43.354Z,18.07
2023-01-30T02:42:39.069Z,18.83
2023-01-30T02:45:49.193Z,20.43
2023-01-30T02:48:39.841Z,22.03
2023-01-30T02:51:11.070Z,17.93
2023-01-30T02:53:39.068Z,19.70
2023-01-30T02:56:07.829Z,19.63
2023-01-30T02:58:47.740Z,18.40
2023-01-30T03:01:21.255Z,19.97
2023-01-30T03:04:07.269Z,19.80
2023-01-30T03:06:38.355Z,17.97
2023-01-30T03:09:08.662Z,18.63
2023-01-30T03:12:07.353Z,19.47
2023-01-30T03:14:47.392Z,18.90
2023-01-30T03:17:15.142Z,18.40
2023-01-30T03:19:43.464Z,20.73
2023-01-30T03:22:11.207Z,19.10
2023-01-30T03:24:39.040Z,16.80
2023-01-30T03:27:12.255Z,20.63
2023-01-30T03:29:40.481Z,19.20
2023-01-30T03:32:08.583Z,24.70
2023-01-30T03:34:36.387Z,17.70
2023-01-30T03:37:05.075Z,19.33
2023-01-30T03:39:32.901Z,17.23
2023-01-30T03:42:00.746Z,19.40
2023-01-30T03:44:28.531Z,21.10
2023-01-30T03:46:56.416Z,20.20
2023-01-30T03:49:24.409Z,19.53
2023-01-30T03:51:52.134Z,18.53
2023-01-30T03:54:19.945Z,19.80
2023-01-30T03:56:47.851Z,20.50
2023-01-30T03:59:15.575Z,20.20
2023-01-30T04:01:43.364Z,18.77
2023-01-30T04:04:11.366Z,20.13
2023-01-30T04:06:39.110Z,17.33
2023-01-30T04:09:06.987Z,19.10
2023-01-30T04:11:34.753Z,16.00
2023-01-30T04:14:02.527Z,21.77
2023-01-30T04:16:30.417Z,23.13
2023-01-30T04:18:58.176Z,17.23
2023-01-30T04:21:25.982Z,18.67
2023-01-30T04:23:53.785Z,20.37
2023-01-30T04:26:21.750Z,18.90
2023-01-30T04:28:49.486Z,21.97
2023-01-30T04:31:17.395Z,18.07
2023-01-30T04:33:45.133Z,18.53
2023-01-30T04:36:13.886Z,19.57
2023-01-30T04:38:41.740Z,17.47
2023-01-30T04:41:09.726Z,20.17
2023-01-30T04:43:37.522Z,15.97
2023-01-30T04:46:05.429Z,17.83
2023-01-30T04:48:33.380Z,15.40
2023-01-30T04:51:01.305Z,18.63
2023-01-30T04:53:29.359Z,18.33
2023-01-30T04:55:57.212Z,18.40
2023-01-30T04:58:25.123Z,19.90
2023-01-30T05:00:52.847Z,18.53
2023-01-30T05:03:20.715Z,16.30
2023-01-30T05:05:48.574Z,18.27
2023-01-30T05:08:16.944Z,19.63
2023-01-30T05:10:44.758Z,17.10
2023-01-30T05:13:12.535Z,18.93
2023-01-30T05:15:40.379Z,18.13
2023-01-30T05:18:08.174Z,16.30
2023-01-30T05:20:35.893Z,18.17
2023-01-30T05:23:03.692Z,18.90
2023-01-30T05:25:31.482Z,16.90
2023-01-30T05:27:59.345Z,16.17
2023-01-30T05:30:27.231Z,20.10
2023-01-30T05:32:55.137Z,20.30
2023-01-30T05:35:22.955Z,18.50
2023-01-30T05:37:53.906Z,18.30
2023-01-30T05:40:21.764Z,18.17
2023-01-30T05:42:49.654Z,17.83
2023-01-30T05:45:17.725Z,16.03
2023-01-30T05:47:45.671Z,16.93
2023-01-30T05:50:13.561Z,17.63
2023-01-30T05:52:41.351Z,16.80
2023-01-30T05:55:09.612Z,14.23
2023-01-30T05:57:37.394Z,16.23
2023-01-30T06:00:06.600Z,18.20
2023-01-30T06:02:34.667Z,16.83
2023-01-30T06:05:02.494Z,16.17
2023-01-30T06:07:30.458Z,15.67
2023-01-30T06:09:58.322Z,17.27
2023-01-30T06:12:26.202Z,16.53
2023-01-30T06:14:54.055Z,14.87
2023-01-30T06:17:21.924Z,15.80
2023-01-30T06:19:49.688Z,13.53
2023-01-30T06:22:17.462Z,14.07
2023-01-30T06:24:45.345Z,13.53
2023-01-30T06:27:13.096Z,14.57
2023-01-30T06:29:40.887Z,14.43
2023-01-30T06:32:10.603Z,15.90
2023-01-30T06:34:38.504Z,14.60
2023-01-30T06:37:06.364Z,14.10
2023-01-30T06:39:34.246Z,13.93
2023-01-30T06:42:02.013Z,12.93
2023-01-30T06:44:29.814Z,15.17
2023-01-30T06:46:57.574Z,13.37
2023-01-30T06:49:25.350Z,16.03
2023-01-30T06:51:53.126Z,16.37
2023-01-30T06:54:20.875Z,16.60
2023-01-30T06:56:48.747Z,12.20
2023-01-30T06:59:16.600Z,18.93
2023-01-30T07:01:44.427Z,18.30
2023-01-30T07:04:17.009Z,15.40
2023-01-30T07:06:44.821Z,14.43
2023-01-30T07:09:13.074Z,15.93
2023-01-30T07:11:40.881Z,16.07
2023-01-30T07:14:08.749Z,17.43
2023-01-30T07:16:36.614Z,18.73
2023-01-30T07:19:04.492Z,15.87
2023-01-30T07:21:32.254Z,16.37
2023-01-30T07:24:00.634Z,17.50
2023-01-30T07:26:30.865Z,15.07
2023-01-30T07:28:58.793Z,18.13
2023-01-30T07:31:26.757Z,18.07
2023-01-30T07:33:54.552Z,14.73
2023-01-30T07:36:22.396Z,15.40
2023-01-30T07:38:50.874Z,20.90
2023-01-30T07:41:18.750Z,17.23
2023-01-30T07:43:46.557Z,16.40
2023-01-30T07:46:14.276Z,16.23
2023-01-30T07:48:42.091Z,17.25
2023-01-30T07:51:09.932Z,16.23
2023-01-30T07:53:37.810Z,16.47
2023-01-30T07:56:11.888Z,19.87
2023-01-30T07:58:39.763Z,19.57
2023-01-30T08:01:07.743Z,20.23
2023-01-30T08:03:35.551Z,20.90
2023-01-30T08:06:03.421Z,20.00
2023-01-30T08:08:31.328Z,17.87
2023-01-30T08:10:59.051Z,20.30
2023-01-30T08:13:26.833Z,19.80
2023-01-30T08:15:54.715Z,18.50
2023-01-30T08:18:22.501Z,18.20
2023-01-30T08:20:50.370Z,18.70
2023-01-30T08:23:18.067Z,17.87
2023-01-30T08:25:45.871Z,16.77
2023-01-30T08:28:13.691Z,16.23
2023-01-30T08:30:42.891Z,18.43
2023-01-30T08:33:10.710Z,17.10
2023-01-30T08:35:38.578Z,16.60
2023-01-30T08:38:12.386Z,17.27
2023-01-30T08:40:40.201Z,19.53
2023-01-30T08:43:08.192Z,18.50
2023-01-30T08:45:36.114Z,15.73
2023-01-30T08:48:05.665Z,15.77
2023-01-30T08:50:34.029Z,15.07
2023-01-30T08:53:06.825Z,16.47
2023-01-30T08:55:34.695Z,16.10
2023-01-30T08:58:02.586Z,15.83
2023-01-30T09:00:30.525Z,14.90
2023-01-30T09:02:58.642Z,15.37
2023-01-30T09:05:26.586Z,16.10
2023-01-30T09:07:54.479Z,15.47
2023-01-30T09:10:23.446Z,13.10
2023-01-30T09:12:51.433Z,12.70
2023-01-30T09:15:19.438Z,12.77
2023-01-30T09:17:47.340Z,16.00
2023-01-30T09:20:15.262Z,14.93
2023-01-30T09:22:43.152Z,16.03
2023-01-30T09:25:11.259Z,15.17
2023-01-30T09:27:39.148Z,14.07
2023-01-30T09:30:07.657Z,15.17
2023-01-30T09:32:38.654Z,15.10
2023-01-30T09:35:06.648Z,15.20
2023-01-30T09:37:34.518Z,13.97
2023-01-30T09:40:02.354Z,13.10
2023-01-30T09:42:39.087Z,12.70
2023-01-30T09:45:40.142Z,12.77
2023-01-30T09:48:13.857Z,11.70
2023-01-30T09:50:56.958Z,12.63
2023-01-30T09:53:55.159Z,12.23
2023-01-30T09:56:22.948Z,14.90
2023-01-30T09:58:56.216Z,15.30
2023-01-30T10:01:47.005Z,14.20
2023-01-30T10:04:24.410Z,13.17
2023-01-30T10:07:13.259Z,11.63
2023-01-30T10:09:55.345Z,13.13
2023-01-30T10:12:38.359Z,11.17
2023-01-30T10:15:23.682Z,13.57
2023-01-30T10:18:11.905Z,12.43
2023-01-30T10:21:17.258Z,13.93
2023-01-30T10:23:57.089Z,12.13
2023-01-30T10:26:26.939Z,13.50
2023-01-30T10:29:09.773Z,11.00
2023-01-30T10:31:48.193Z,13.93
2023-01-30T10:34:25.443Z,12.37
2023-01-30T10:37:01.636Z,11.67
2023-01-30T10:39:40.848Z,11.27
2023-01-30T10:42:16.018Z,11.83
2023-01-30T10:44:44.095Z,14.70
2023-01-30T10:47:34.783Z,10.77
2023-01-30T10:50:19.351Z,10.47
2023-01-30T10:53:22.017Z,10.10
2023-01-30T10:55:52.441Z,10.47
2023-01-30T10:58:56.248Z,11.50
2023-01-30T11:01:45.508Z,11.60
2023-01-30T11:04:22.203Z,11.20
2023-01-30T11:06:50.077Z,14.97
2023-01-30T11:09:18.081Z,14.87
2023-01-30T11:11:51.119Z,10.10
2023-01-30T11:14:19.107Z,12.97
2023-01-30T11:16:54.758Z,11.40
2023-01-30T11:19:42.217Z,11.13
2023-01-30T11:22:14.446Z,12.60
2023-01-30T11:24:43.846Z,10.87
2023-01-30T11:27:21.238Z,11.97
2023-01-30T11:29:51.532Z,14.10
2023-01-30T11:32:38.433Z,11.67
2023-01-30T11:35:09.426Z,11.60
2023-01-30T11:37:38.722Z,10.30
2023-01-30T11:40:18.884Z,11.53
2023-01-30T11:43:01.298Z,11.20
2023-01-30T11:45:31.610Z,9.70
2023-01-30T11:48:04.582Z,9.50
2023-01-30T11:50:49.688Z,10.87
2023-01-30T11:53:31.325Z,9.27
2023-01-30T11:56:05.689Z,9.40
2023-01-30T11:58:36.286Z,10.50
2023-01-30T12:01:04.366Z,10.10
2023-01-30T12:03:32.532Z,10.30
2023-01-30T12:06:00.555Z,9.33
2023-01-30T12:08:42.233Z,10.37
2023-01-30T12:11:27.629Z,10.53
2023-01-30T12:13:58.965Z,10.37
2023-01-30T12:16:33.225Z,12.53
2023-01-30T12:19:06.401Z,11.63
2023-01-30T12:22:11.121Z,10.93
2023-01-30T12:25:04.138Z,10.30
2023-01-30T12:27:49.688Z,11.83
2023-01-30T12:33:07.544Z,14.00
2023-01-30T12:35:54.496Z,11.77
2023-01-30T12:38:25.302Z,11.40
2023-01-30T12:40:55.821Z,10.27
2023-01-30T12:43:55.869Z,10.03
2023-01-30T12:46:39.779Z,10.97
2023-01-30T12:49:31.952Z,11.93
2023-01-30T12:52:18.479Z,11.40
2023-01-30T12:54:49.570Z,14.03
2023-01-30T12:57:23.441Z,11.50
2023-01-30T13:00:05.007Z,9.83
2023-01-30T13:03:04.038Z,9.83
2023-01-30T13:05:34.677Z,10.27
2023-01-30T13:08:11.262Z,10.07
2023-01-30T13:10:58.125Z,13.03
2023-01-30T13:13:50.150Z,13.07
2023-01-30T13:16:32.357Z,11.77
2023-01-30T13:19:09.129Z,12.00
2023-01-30T13:21:48.007Z,12.67
2023-01-30T13:24:19.885Z,10.33
2023-01-30T13:26:47.749Z,12.37
2023-01-30T13:29:37.279Z,12.57
2023-01-30T13:32:07.235Z,13.10
2023-01-30T13:34:39.759Z,12.73
2023-01-30T13:37:13.634Z,12.87
2023-01-30T13:40:00.879Z,14.83
2023-01-30T13:42:48.588Z,12.50
2023-01-30T13:45:24.137Z,11.73
2023-01-30T13:48:30.464Z,16.87
2023-01-30T13:50:58.092Z,14.20
2023-01-30T13:53:43.588Z,12.60
2023-01-30T13:56:40.311Z,13.77
2023-01-30T13:59:37.325Z,13.27
2023-01-30T14:02:05.098Z,11.30
2023-01-30T14:04:41.959Z,12.17
2023-01-30T14:07:16.791Z,11.60
2023-01-30T14:09:47.817Z,10.40
2023-01-30T14:12:25.788Z,27.20
2023-01-30T14:15:12.550Z,12.93
2023-01-30T14:17:40.911Z,11.67
2023-01-30T14:20:16.626Z,11.87
2023-01-30T14:22:54.034Z,13.03
2023-01-30T14:25:34.340Z,9.70
2023-01-30T14:28:02.811Z,13.03
2023-01-30T14:31:00.798Z,12.07
2023-01-30T14:33:28.506Z,12.20
2023-01-30T14:36:02.467Z,11.70
2023-01-30T14:38:40.057Z,12.60
2023-01-30T14:41:10.616Z,12.30
2023-01-30T14:43:38.356Z,15.47
2023-01-30T14:46:21.351Z,10.83
2023-01-30T14:48:51.752Z,11.13
2023-01-30T14:51:46.467Z,10.80
2023-01-30T14:54:14.339Z,13.97
2023-01-30T14:57:00.294Z,17.00
2023-01-30T14:59:33.736Z,22.57
2023-01-30T15:02:14.856Z,12.33
2023-01-30T15:04:44.528Z,12.63
2023-01-30T15:07:18.731Z,11.77
2023-01-30T15:10:31.861Z,11.10
2023-01-30T15:13:08.500Z,10.43
2023-01-30T15:15:59.753Z,11.60
2023-01-30T15:18:42.787Z,11.77
2023-01-30T15:21:41.751Z,10.97
2023-01-30T15:24:34.336Z,11.47
2023-01-30T15:27:14.432Z,14.63
2023-01-30T15:30:23.499Z,10.60
2023-01-30T15:32:51.483Z,9.47
2023-01-30T15:35:19.977Z,12.27
2023-01-30T15:37:47.773Z,11.07
2023-01-30T15:40:21.864Z,11.40
2023-01-30T15:43:02.126Z,10.07
2023-01-30T15:45:52.789Z,11.53
2023-01-30T15:48:49.101Z,10.23
2023-01-30T15:51:17.529Z,10.77
2023-01-30T15:53:46.441Z,10.37
2023-01-30T15:56:20.298Z,11.83
2023-01-30T15:58:48.252Z,10.87
2023-01-30T16:01:25.514Z,12.27
2023-01-30T16:03:54.536Z,14.87
2023-01-30T16:06:25.841Z,12.23
2023-01-30T16:09:04.959Z,10.93
2023-01-30T16:11:39.960Z,12.03
2023-01-30T16:14:12.270Z,14.03
2023-01-30T16:16:40.102Z,13.53
2023-01-30T16:19:09.011Z,14.03
2023-01-30T16:21:38.225Z,12.20
2023-01-30T16:24:21.663Z,11.53
2023-01-30T16:26:50.635Z,11.20
2023-01-30T16:29:20.537Z,10.43
2023-01-30T16:31:49.179Z,13.90
2023-01-30T16:34:36.100Z,10.60
2023-01-30T16:37:08.862Z,11.40
2023-01-30T16:39:37.890Z,12.93
2023-01-30T16:42:22.337Z,12.47
2023-01-30T16:44:50.199Z,16.13
2023-01-30T16:47:28.221Z,11.17
2023-01-30T16:49:56.511Z,13.37
2023-01-30T16:52:37.985Z,11.67
2023-01-30T16:55:07.913Z,14.10
2023-01-30T16:57:39.797Z,11.80
2023-01-30T17:00:11.055Z,15.37
2023-01-30T17:02:40.913Z,9.87
2023-01-30T17:05:32.641Z,10.83
2023-01-30T17:08:01.607Z,10.43
2023-01-30T17:10:29.471Z,11.07
2023-01-30T17:12:57.446Z,10.13
2023-01-30T17:15:33.339Z,11.30
2023-01-30T17:18:01.238Z,10.13
2023-01-30T17:20:36.700Z,12.53
2023-01-30T17:23:06.831Z,12.07
2023-01-30T17:25:39.356Z,11.50
2023-01-30T17:28:08.205Z,13.27
2023-01-30T17:30:36.341Z,12.57
2023-01-30T17:33:04.153Z,11.70
2023-01-30T17:35:31.971Z,13.37
2023-01-30T17:38:05.415Z,12.87
2023-01-30T17:40:37.317Z,12.37
2023-01-30T17:43:05.741Z,11.37
2023-01-30T17:45:33.612Z,13.47
2023-01-30T17:48:01.587Z,16.70
2023-01-30T17:50:29.757Z,15.57
2023-01-30T17:52:57.650Z,13.23
2023-01-30T17:55:25.470Z,10.83
2023-01-30T17:57:54.281Z,14.17
2023-01-30T18:00:22.951Z,13.00
2023-01-30T18:02:50.981Z,11.93
2023-01-30T18:05:18.822Z,11.70
2023-01-30T18:07:46.676Z,12.37
2023-01-30T18:10:19.879Z,9.30
2023-01-30T18:12:48.135Z,13.90
2023-01-30T18:15:17.076Z,12.93
2023-01-30T18:17:49.087Z,12.50
2023-01-30T18:20:19.422Z,12.97
2023-01-30T18:22:47.602Z,11.17
2023-01-30T18:25:15.734Z,10.33
2023-01-30T18:27:45.244Z,12.47
2023-01-30T18:30:17.031Z,13.57
2023-01-30T18:32:52.424Z,11.27
2023-01-30T18:35:21.163Z,13.27
2023-01-30T18:37:49.049Z,14.13
2023-01-30T18:40:17.039Z,13.53
2023-01-30T18:42:44.960Z,12.23
2023-01-30T18:45:12.844Z,13.23
2023-01-30T18:47:40.656Z,13.27
2023-01-30T18:50:08.721Z,13.90
2023-01-30T18:52:36.679Z,11.87
2023-01-30T18:55:04.611Z,12.30
2023-01-30T18:57:32.595Z,11.73
2023-01-30T19:00:00.467Z,14.07
2023-01-30T19:02:28.295Z,11.80
2023-01-30T19:04:56.108Z,13.20
2023-01-30T19:07:24.133Z,12.33
2023-01-30T19:09:51.930Z,12.30
2023-01-30T19:12:38.369Z,13.37
2023-01-30T19:15:07.202Z,13.10
2023-01-30T19:17:35.074Z,11.67
2023-01-30T19:20:03.766Z,12.30
2023-01-30T19:22:31.613Z,12.67
2023-01-30T19:24:59.566Z,12.30
2023-01-30T19:27:27.562Z,11.27
2023-01-30T19:29:55.419Z,13.07
2023-01-30T19:32:23.311Z,10.87
2023-01-30T19:34:51.162Z,12.20
2023-01-30T19:37:19.144Z,10.83
2023-01-30T19:39:47.058Z,12.30
2023-01-30T19:42:17.204Z,10.73
2023-01-30T19:44:45.180Z,19.83
2023-01-30T19:47:13.037Z,15.53
2023-01-30T19:49:41.026Z,11.57
2023-01-30T19:52:08.942Z,8.50
2023-01-30T19:54:36.713Z,8.33
2023-01-30T19:57:04.601Z,10.53
2023-01-30T19:59:32.479Z,8.07
2023-01-30T20:02:00.483Z,8.87
2023-01-30T20:04:28.401Z,8.67
2023-01-30T20:06:56.321Z,9.13
2023-01-30T20:09:24.210Z,7.83
2023-01-30T20:11:52.072Z,8.37
2023-01-30T20:14:20.017Z,8.13
2023-01-30T20:16:47.867Z,9.43
2023-01-30T20:19:17.250Z,9.67
2023-01-30T20:21:45.511Z,7.37
2023-01-30T20:24:14.541Z,8.30
2023-01-30T20:26:42.778Z,6.57
2023-01-30T20:29:10.822Z,7.43
2023-01-30T20:31:41.818Z,6.40
2023-01-30T20:34:12.352Z,6.57
2023-01-30T20:36:40.328Z,7.23
2023-01-30T20:39:09.521Z,5.20
2023-01-30T20:41:38.839Z,5.27
2023-01-30T20:44:08.328Z,5.50
2023-01-30T20:46:42.050Z,5.30
2023-01-30T20:49:22.355Z,6.47
2023-01-30T20:51:51.915Z,6.10
2023-01-30T20:54:21.060Z,6.43
2023-01-30T20:56:50.663Z,5.40
2023-01-30T20:59:20.284Z,5.67
2023-01-30T21:01:48.233Z,5.83
2023-01-30T21:04:16.826Z,5.33
2023-01-30T21:06:45.941Z,4.50
2023-01-30T21:09:19.212Z,10.90
2023-01-30T21:11:47.236Z,5.20
2023-01-30T21:14:15.247Z,4.53
2023-01-30T21:16:43.420Z,4.03
2023-01-30T21:19:13.857Z,4.00
2023-01-30T21:21:46.953Z,3.63
2023-01-30T21:24:15.610Z,3.93
2023-01-30T21:26:47.079Z,5.77
2023-01-30T21:29:16.303Z,4.37
2023-01-30T21:31:45.405Z,4.00
2023-01-30T21:34:13.466Z,5.20
2023-01-30T21:36:41.432Z,5.20
2023-01-30T21:39:30.775Z,4.20
2023-01-30T21:42:17.575Z,3.57
2023-01-30T21:44:45.929Z,4.60
2023-01-30T21:47:14.083Z,4.13
2023-01-30T21:49:42.927Z,4.83
2023-01-30T21:52:10.751Z,3.63
2023-01-30T21:54:39.099Z,4.83
2023-01-30T21:57:07.007Z,4.63
2023-01-30T21:59:34.794Z,4.17
2023-01-30T22:02:02.641Z,4.73
2023-01-30T22:04:30.415Z,4.70
2023-01-30T22:06:58.136Z,3.47
2023-01-30T22:09:26.016Z,3.77
2023-01-30T22:11:55.466Z,3.73
2023-01-30T22:14:23.417Z,12.60
2023-01-30T22:16:51.369Z,6.90
2023-01-30T22:19:19.237Z,4.30
2023-01-30T22:21:47.119Z,3.37
2023-01-30T22:24:14.911Z,4.83
2023-01-30T22:26:42.865Z,3.07
2023-01-30T22:29:10.726Z,3.60
2023-01-30T22:31:39.750Z,4.43
2023-01-30T22:34:07.671Z,4.30
2023-01-30T22:36:36.170Z,3.70
2023-01-30T22:39:04.640Z,3.77
2023-01-30T22:41:36.250Z,4.37
2023-01-30T22:44:05.239Z,3.67
2023-01-30T22:46:34.702Z,4.40
2023-01-30T22:49:02.799Z,3.77
2023-01-30T22:51:32.410Z,4.60
2023-01-30T22:54:01.917Z,3.67
2023-01-30T22:56:31.839Z,5.47
2023-01-30T22:58:59.689Z,4.00
2023-01-30T23:01:31.826Z,3.67
2023-01-30T23:04:01.399Z,3.87
2023-01-30T23:06:29.298Z,4.93
2023-01-30T23:08:57.116Z,5.13
2023-01-30T23:11:27.303Z,6.37
2023-01-30T23:13:56.340Z,5.33
2023-01-30T23:16:26.240Z,4.20
2023-01-30T23:18:56.995Z,5.13
2023-01-30T23:21:28.978Z,5.67
2023-01-30T23:23:58.170Z,5.20
2023-01-30T23:26:27.158Z,4.43
2023-01-30T23:28:54.967Z,5.33
2023-01-30T23:31:24.624Z,5.63
2023-01-30T23:34:00.244Z,4.47
2023-01-30T23:36:28.314Z,4.10
2023-01-30T23:38:57.127Z,6.87
2023-01-30T23:41:27.114Z,5.40
2023-01-30T23:43:55.277Z,4.80
2023-01-30T23:46:28.256Z,4.30
2023-01-30T23:48:58.040Z,4.70
2023-01-30T23:51:28.420Z,4.53
2023-01-30T23:53:56.301Z,4.20
2023-01-30T23:56:25.036Z,4.53
2023-01-30T23:58:53.002Z,5.00
